sensor_id;sensor_type;location;lat;lon;timestamp;P1;durP1;ratioP1;P2;durP2;ratioP2
39242;SDS011;29823;47.404;8.566;2023-03-12T00:02:25;22.90;;;12.88;;
39242;SDS011;29823;47.404;8.566;2023-03-12T00:04:53;18.63;;;11.57;;
39242;SDS011;29823;47.404;8.566;2023-03-12T00:07:21;16.95;;;11.27;;
39242;SDS011;29823;47.404;8.566;2023-03-12T00:09:49;18.10;;;11.73;;
39242;SDS011;29823;47.404;8.566;2023-03-12T00:12:17;18.23;;;11.57;;
39242;SDS011;29823;47.404;8.566;2023-03-12T00:14:45;19.02;;;12.18;;
39242;SDS011;29823;47.404;8.566;2023-03-12T00:17:14;19.80;;;11.98;;
39242;SDS011;29823;47.404;8.566;2023-03-12T00:19:42;16.90;;;10.50;;
39242;SDS011;29823;47.404;8.566;2023-03-12T00:22:10;18.80;;;11.95;;
39242;SDS011;29823;47.404;8.566;2023-03-12T00:24:38;18.77;;;11.68;;
39242;SDS011;29823;47.404;8.566;2023-03-12T00:27:06;45.35;;;24.63;;
39242;SDS011;29823;47.404;8.566;2023-03-12T00:29:34;21.83;;;12.75;;
39242;SDS011;29823;47.404;8.566;2023-03-12T00:32:02;19.15;;;12.07;;
39242;SDS011;29823;47.404;8.566;2023-03-12T00:34:31;20.73;;;12.43;;
39242;SDS011;29823;47.404;8.566;2023-03-12T00:36:59;21.15;;;12.07;;
39242;SDS011;29823;47.404;8.566;2023-03-12T00:39:27;20.70;;;11.48;;
39242;SDS011;29823;47.404;8.566;2023-03-12T00:41:55;18.67;;;11.60;;
39242;SDS011;29823;47.404;8.566;2023-03-12T00:44:22;21.88;;;12.18;;
39242;SDS011;29823;47.404;8.566;2023-03-12T00:46:50;20.95;;;11.98;;
39242;SDS011;29823;47.404;8.566;2023-03-12T00:49:18;18.83;;;12.23;;
39242;SDS011;29823;47.404;8.566;2023-03-12T00:51:47;19.60;;;11.95;;
39242;SDS011;29823;47.404;8.566;2023-03-12T00:54:15;19.80;;;11.80;;
39242;SDS011;29823;47.404;8.566;2023-03-12T00:56:43;20.67;;;11.65;;
39242;SDS011;29823;47.404;8.566;2023-03-12T00:59:11;20.23;;;12.05;;
39242;SDS011;29823;47.404;8.566;2023-03-12T01:01:40;19.17;;;11.35;;
39242;SDS011;29823;47.404;8.566;2023-03-12T01:04:08;18.00;;;11.15;;
39242;SDS011;29823;47.404;8.566;2023-03-12T01:06:36;22.08;;;12.45;;
39242;SDS011;29823;47.404;8.566;2023-03-12T01:09:06;20.30;;;11.98;;
39242;SDS011;29823;47.404;8.566;2023-03-12T01:11:35;22.23;;;12.52;;
39242;SDS011;29823;47.404;8.566;2023-03-12T01:14:04;18.98;;;11.02;;
39242;SDS011;29823;47.404;8.566;2023-03-12T01:16:33;19.05;;;10.98;;
39242;SDS011;29823;47.404;8.566;2023-03-12T01:19:01;22.15;;;10.95;;
39242;SDS011;29823;47.404;8.566;2023-03-12T01:21:30;19.65;;;11.45;;
39242;SDS011;29823;47.404;8.566;2023-03-12T01:23:58;19.00;;;10.73;;
39242;SDS011;29823;47.404;8.566;2023-03-12T01:26:27;17.90;;;9.93;;
39242;SDS011;29823;47.404;8.566;2023-03-12T01:28:55;16.80;;;10.13;;
39242;SDS011;29823;47.404;8.566;2023-03-12T01:31:23;17.73;;;10.93;;
39242;SDS011;29823;47.404;8.566;2023-03-12T01:33:51;19.70;;;10.88;;
39242;SDS011;29823;47.404;8.566;2023-03-12T01:36:20;22.25;;;10.57;;
39242;SDS011;29823;47.404;8.566;2023-03-12T01:38:50;20.08;;;10.90;;
39242;SDS011;29823;47.404;8.566;2023-03-12T01:41:19;20.92;;;12.00;;
39242;SDS011;29823;47.404;8.566;2023-03-12T01:43:49;20.08;;;10.82;;
39242;SDS011;29823;47.404;8.566;2023-03-12T01:46:22;21.05;;;10.85;;
39242;SDS011;29823;47.404;8.566;2023-03-12T01:48:54;16.92;;;9.93;;
39242;SDS011;29823;47.404;8.566;2023-03-12T01:51:26;19.08;;;10.85;;
39242;SDS011;29823;47.404;8.566;2023-03-12T01:53:57;13.93;;;8.83;;
39242;SDS011;29823;47.404;8.566;2023-03-12T01:56:29;16.48;;;10.05;;
39242;SDS011;29823;47.404;8.566;2023-03-12T02:01:33;13.95;;;8.18;;
39242;SDS011;29823;47.404;8.566;2023-03-12T02:04:01;13.70;;;8.50;;
39242;SDS011;29823;47.404;8.566;2023-03-12T02:06:30;14.82;;;8.40;;
39242;SDS011;29823;47.404;8.566;2023-03-12T02:09:03;14.68;;;8.80;;
39242;SDS011;29823;47.404;8.566;2023-03-12T02:11:33;11.02;;;7.68;;
39242;SDS011;29823;47.404;8.566;2023-03-12T02:14:02;13.40;;;7.95;;
39242;SDS011;29823;47.404;8.566;2023-03-12T02:16:31;10.65;;;7.63;;
39242;SDS011;29823;47.404;8.566;2023-03-12T02:18:59;12.45;;;7.50;;
39242;SDS011;29823;47.404;8.566;2023-03-12T02:21:29;10.55;;;7.10;;
39242;SDS011;29823;47.404;8.566;2023-03-12T02:24:02;10.90;;;6.82;;
39242;SDS011;29823;47.404;8.566;2023-03-12T02:26:40;9.98;;;6.80;;
39242;SDS011;29823;47.404;8.566;2023-03-12T02:29:08;10.63;;;7.00;;
39242;SDS011;29823;47.404;8.566;2023-03-12T02:31:37;11.05;;;6.72;;
39242;SDS011;29823;47.404;8.566;2023-03-12T02:34:09;11.40;;;6.82;;
39242;SDS011;29823;47.404;8.566;2023-03-12T02:36:37;9.95;;;6.68;;
39242;SDS011;29823;47.404;8.566;2023-03-12T02:39:04;10.07;;;6.80;;
39242;SDS011;29823;47.404;8.566;2023-03-12T02:41:33;9.13;;;6.68;;
39242;SDS011;29823;47.404;8.566;2023-03-12T02:44:06;8.73;;;6.80;;
39242;SDS011;29823;47.404;8.566;2023-03-12T02:46:37;8.75;;;6.05;;
39242;SDS011;29823;47.404;8.566;2023-03-12T02:49:07;8.82;;;5.90;;
39242;SDS011;29823;47.404;8.566;2023-03-12T02:51:37;10.18;;;6.05;;
39242;SDS011;29823;47.404;8.566;2023-03-12T02:54:05;7.70;;;5.32;;
39242;SDS011;29823;47.404;8.566;2023-03-12T02:56:33;8.05;;;5.15;;
39242;SDS011;29823;47.404;8.566;2023-03-12T02:59:01;9.50;;;5.57;;
39242;SDS011;29823;47.404;8.566;2023-03-12T03:01:31;7.45;;;4.82;;
39242;SDS011;29823;47.404;8.566;2023-03-12T03:04:00;6.18;;;4.80;;
39242;SDS011;29823;47.404;8.566;2023-03-12T03:06:28;6.13;;;4.30;;
39242;SDS011;29823;47.404;8.566;2023-03-12T03:08:56;6.78;;;4.57;;
39242;SDS011;29823;47.404;8.566;2023-03-12T03:11:24;6.80;;;4.18;;
39242;SDS011;29823;47.404;8.566;2023-03-12T03:13:53;6.78;;;4.93;;
39242;SDS011;29823;47.404;8.566;2023-03-12T03:16:21;6.70;;;4.90;;
39242;SDS011;29823;47.404;8.566;2023-03-12T03:18:51;6.85;;;4.47;;
39242;SDS011;29823;47.404;8.566;2023-03-12T03:21:19;10.88;;;4.75;;
39242;SDS011;29823;47.404;8.566;2023-03-12T03:23:48;7.95;;;5.57;;
39242;SDS011;29823;47.404;8.566;2023-03-12T03:26:17;9.60;;;5.35;;
39242;SDS011;29823;47.404;8.566;2023-03-12T03:28:46;7.82;;;5.00;;
39242;SDS011;29823;47.404;8.566;2023-03-12T03:31:14;9.68;;;5.90;;
39242;SDS011;29823;47.404;8.566;2023-03-12T03:33:42;8.70;;;5.82;;
39242;SDS011;29823;47.404;8.566;2023-03-12T03:36:11;9.43;;;6.18;;
39242;SDS011;29823;47.404;8.566;2023-03-12T03:38:40;10.65;;;6.85;;
39242;SDS011;29823;47.404;8.566;2023-03-12T03:41:12;9.73;;;6.18;;
39242;SDS011;29823;47.404;8.566;2023-03-12T03:43:40;12.00;;;6.05;;
39242;SDS011;29823;47.404;8.566;2023-03-12T03:46:09;9.02;;;6.75;;
39242;SDS011;29823;47.404;8.566;2023-03-12T03:48:38;9.10;;;6.15;;
39242;SDS011;29823;47.404;8.566;2023-03-12T03:51:07;10.40;;;6.57;;
39242;SDS011;29823;47.404;8.566;2023-03-12T03:53:38;9.77;;;6.40;;
39242;SDS011;29823;47.404;8.566;2023-03-12T03:56:06;9.65;;;6.38;;
39242;SDS011;29823;47.404;8.566;2023-03-12T03:58:36;8.88;;;5.82;;
39242;SDS011;29823;47.404;8.566;2023-03-12T04:01:04;8.32;;;5.40;;
39242;SDS011;29823;47.404;8.566;2023-03-12T04:03:32;7.05;;;4.82;;
39242;SDS011;29823;47.404;8.566;2023-03-12T04:06:01;6.97;;;4.53;;
39242;SDS011;29823;47.404;8.566;2023-03-12T04:08:32;9.10;;;5.90;;
39242;SDS011;29823;47.404;8.566;2023-03-12T04:11:06;6.70;;;4.78;;
39242;SDS011;29823;47.404;8.566;2023-03-12T04:13:34;6.95;;;4.75;;
39242;SDS011;29823;47.404;8.566;2023-03-12T04:16:03;8.02;;;5.60;;
39242;SDS011;29823;47.404;8.566;2023-03-12T04:18:31;7.00;;;5.07;;
39242;SDS011;29823;47.404;8.566;2023-03-12T04:21:01;9.95;;;5.55;;
39242;SDS011;29823;47.404;8.566;2023-03-12T04:23:30;9.50;;;6.10;;
39242;SDS011;29823;47.404;8.566;2023-03-12T04:25:58;9.48;;;5.75;;
39242;SDS011;29823;47.404;8.566;2023-03-12T04:28:30;7.82;;;5.68;;
39242;SDS011;29823;47.404;8.566;2023-03-12T04:30:59;10.25;;;5.55;;
39242;SDS011;29823;47.404;8.566;2023-03-12T04:33:29;9.10;;;5.68;;
39242;SDS011;29823;47.404;8.566;2023-03-12T04:35:58;9.20;;;5.78;;
39242;SDS011;29823;47.404;8.566;2023-03-12T04:38:27;12.57;;;5.93;;
39242;SDS011;29823;47.404;8.566;2023-03-12T04:40:58;8.52;;;5.53;;
39242;SDS011;29823;47.404;8.566;2023-03-12T04:43:27;11.30;;;5.63;;
39242;SDS011;29823;47.404;8.566;2023-03-12T04:45:56;8.68;;;5.88;;
39242;SDS011;29823;47.404;8.566;2023-03-12T04:48:25;9.10;;;6.28;;
39242;SDS011;29823;47.404;8.566;2023-03-12T04:50:53;14.23;;;5.70;;
39242;SDS011;29823;47.404;8.566;2023-03-12T04:53:22;8.75;;;5.90;;
39242;SDS011;29823;47.404;8.566;2023-03-12T04:55:51;7.68;;;4.88;;
39242;SDS011;29823;47.404;8.566;2023-03-12T04:58:19;7.70;;;4.90;;
39242;SDS011;29823;47.404;8.566;2023-03-12T05:00:48;8.23;;;5.47;;
39242;SDS011;29823;47.404;8.566;2023-03-12T05:03:18;7.47;;;4.95;;
39242;SDS011;29823;47.404;8.566;2023-03-12T05:05:46;6.93;;;4.65;;
39242;SDS011;29823;47.404;8.566;2023-03-12T05:08:15;8.00;;;5.13;;
39242;SDS011;29823;47.404;8.566;2023-03-12T05:10:42;7.00;;;5.00;;
39242;SDS011;29823;47.404;8.566;2023-03-12T05:13:12;7.28;;;5.22;;
39242;SDS011;29823;47.404;8.566;2023-03-12T05:15:40;7.32;;;4.78;;
39242;SDS011;29823;47.404;8.566;2023-03-12T05:18:08;7.28;;;4.88;;
39242;SDS011;29823;47.404;8.566;2023-03-12T05:20:38;7.63;;;4.78;;
39242;SDS011;29823;47.404;8.566;2023-03-12T05:23:06;9.02;;;4.68;;
39242;SDS011;29823;47.404;8.566;2023-03-12T05:25:36;6.32;;;4.25;;
39242;SDS011;29823;47.404;8.566;2023-03-12T05:28:05;7.97;;;4.50;;
39242;SDS011;29823;47.404;8.566;2023-03-12T05:30:33;12.50;;;5.22;;
39242;SDS011;29823;47.404;8.566;2023-03-12T05:33:01;5.18;;;4.10;;
39242;SDS011;29823;47.404;8.566;2023-03-12T05:35:29;8.13;;;5.00;;
39242;SDS011;29823;47.404;8.566;2023-03-12T05:37:58;6.55;;;4.80;;
39242;SDS011;29823;47.404;8.566;2023-03-12T05:40:26;6.97;;;4.90;;
39242;SDS011;29823;47.404;8.566;2023-03-12T05:42:54;10.05;;;5.60;;
39242;SDS011;29823;47.404;8.566;2023-03-12T05:45:22;8.07;;;4.95;;
39242;SDS011;29823;47.404;8.566;2023-03-12T05:47:50;8.40;;;5.75;;
39242;SDS011;29823;47.404;8.566;2023-03-12T05:50:18;10.52;;;5.30;;
39242;SDS011;29823;47.404;8.566;2023-03-12T05:52:46;8.35;;;5.32;;
39242;SDS011;29823;47.404;8.566;2023-03-12T05:55:15;7.47;;;4.75;;
39242;SDS011;29823;47.404;8.566;2023-03-12T05:57:43;9.57;;;5.72;;
39242;SDS011;29823;47.404;8.566;2023-03-12T06:00:12;7.88;;;5.15;;
39242;SDS011;29823;47.404;8.566;2023-03-12T06:02:41;9.13;;;5.10;;
39242;SDS011;29823;47.404;8.566;2023-03-12T06:05:09;9.18;;;5.85;;
39242;SDS011;29823;47.404;8.566;2023-03-12T06:07:37;8.85;;;5.45;;
39242;SDS011;29823;47.404;8.566;2023-03-12T06:10:06;9.13;;;5.47;;
39242;SDS011;29823;47.404;8.566;2023-03-12T06:12:36;9.82;;;6.53;;
39242;SDS011;29823;47.404;8.566;2023-03-12T06:15:04;8.43;;;6.10;;
39242;SDS011;29823;47.404;8.566;2023-03-12T06:17:33;16.73;;;6.43;;
39242;SDS011;29823;47.404;8.566;2023-03-12T06:20:01;9.10;;;5.80;;
39242;SDS011;29823;47.404;8.566;2023-03-12T06:22:29;9.52;;;6.55;;
39242;SDS011;29823;47.404;8.566;2023-03-12T06:24:57;9.20;;;6.53;;
39242;SDS011;29823;47.404;8.566;2023-03-12T06:27:25;12.80;;;7.20;;
39242;SDS011;29823;47.404;8.566;2023-03-12T06:29:54;10.20;;;6.05;;
39242;SDS011;29823;47.404;8.566;2023-03-12T06:32:22;10.15;;;6.35;;
39242;SDS011;29823;47.404;8.566;2023-03-12T06:34:51;9.63;;;6.28;;
39242;SDS011;29823;47.404;8.566;2023-03-12T06:37:19;12.52;;;7.15;;
39242;SDS011;29823;47.404;8.566;2023-03-12T06:39:46;8.00;;;5.78;;
39242;SDS011;29823;47.404;8.566;2023-03-12T06:42:14;18.75;;;10.48;;
39242;SDS011;29823;47.404;8.566;2023-03-12T06:44:43;8.43;;;5.60;;
39242;SDS011;29823;47.404;8.566;2023-03-12T06:47:13;7.80;;;4.95;;
39242;SDS011;29823;47.404;8.566;2023-03-12T06:49:43;8.13;;;5.13;;
39242;SDS011;29823;47.404;8.566;2023-03-12T06:52:10;6.20;;;3.92;;
39242;SDS011;29823;47.404;8.566;2023-03-12T06:54:38;6.53;;;4.80;;
39242;SDS011;29823;47.404;8.566;2023-03-12T06:57:06;5.65;;;4.20;;
39242;SDS011;29823;47.404;8.566;2023-03-12T06:59:34;6.80;;;4.25;;
39242;SDS011;29823;47.404;8.566;2023-03-12T07:02:02;4.90;;;3.70;;
39242;SDS011;29823;47.404;8.566;2023-03-12T07:04:32;5.05;;;3.50;;
39242;SDS011;29823;47.404;8.566;2023-03-12T07:06:59;5.85;;;3.80;;
39242;SDS011;29823;47.404;8.566;2023-03-12T07:09:27;6.35;;;4.20;;
39242;SDS011;29823;47.404;8.566;2023-03-12T07:11:55;5.85;;;4.05;;
39242;SDS011;29823;47.404;8.566;2023-03-12T07:14:23;4.97;;;3.42;;
39242;SDS011;29823;47.404;8.566;2023-03-12T07:16:51;5.88;;;3.67;;
39242;SDS011;29823;47.404;8.566;2023-03-12T07:19:19;6.88;;;3.45;;
39242;SDS011;29823;47.404;8.566;2023-03-12T07:21:48;4.78;;;3.50;;
39242;SDS011;29823;47.404;8.566;2023-03-12T07:24:16;4.22;;;3.25;;
39242;SDS011;29823;47.404;8.566;2023-03-12T07:26:44;5.15;;;3.88;;
39242;SDS011;29823;47.404;8.566;2023-03-12T07:29:12;12.88;;;4.30;;
39242;SDS011;29823;47.404;8.566;2023-03-12T07:31:40;5.30;;;3.83;;
39242;SDS011;29823;47.404;8.566;2023-03-12T07:34:08;6.78;;;3.50;;
39242;SDS011;29823;47.404;8.566;2023-03-12T07:36:36;4.97;;;3.67;;
39242;SDS011;29823;47.404;8.566;2023-03-12T07:39:05;5.90;;;3.90;;
39242;SDS011;29823;47.404;8.566;2023-03-12T07:41:34;8.73;;;4.68;;
39242;SDS011;29823;47.404;8.566;2023-03-12T07:44:04;6.97;;;4.78;;
39242;SDS011;29823;47.404;8.566;2023-03-12T07:46:32;7.10;;;4.32;;
39242;SDS011;29823;47.404;8.566;2023-03-12T07:49:00;6.70;;;4.93;;
39242;SDS011;29823;47.404;8.566;2023-03-12T07:51:27;7.65;;;4.97;;
39242;SDS011;29823;47.404;8.566;2023-03-12T07:53:55;6.50;;;4.50;;
39242;SDS011;29823;47.404;8.566;2023-03-12T07:56:24;8.10;;;5.10;;
39242;SDS011;29823;47.404;8.566;2023-03-12T07:58:52;6.57;;;4.75;;
39242;SDS011;29823;47.404;8.566;2023-03-12T08:01:21;6.40;;;4.72;;
39242;SDS011;29823;47.404;8.566;2023-03-12T08:03:50;8.45;;;5.32;;
39242;SDS011;29823;47.404;8.566;2023-03-12T08:06:18;8.57;;;5.80;;
39242;SDS011;29823;47.404;8.566;2023-03-12T08:08:47;7.60;;;5.80;;
39242;SDS011;29823;47.404;8.566;2023-03-12T08:11:15;6.30;;;5.03;;
39242;SDS011;29823;47.404;8.566;2023-03-12T08:13:44;6.78;;;5.38;;
39242;SDS011;29823;47.404;8.566;2023-03-12T08:16:12;6.15;;;4.55;;
39242;SDS011;29823;47.404;8.566;2023-03-12T08:18:41;6.53;;;4.95;;
39242;SDS011;29823;47.404;8.566;2023-03-12T08:21:09;6.43;;;4.85;;
39242;SDS011;29823;47.404;8.566;2023-03-12T08:23:39;6.15;;;4.20;;
39242;SDS011;29823;47.404;8.566;2023-03-12T08:26:07;7.43;;;4.80;;
39242;SDS011;29823;47.404;8.566;2023-03-12T08:28:35;7.47;;;5.47;;
39242;SDS011;29823;47.404;8.566;2023-03-12T08:31:04;6.55;;;5.07;;
39242;SDS011;29823;47.404;8.566;2023-03-12T08:33:33;6.07;;;4.60;;
39242;SDS011;29823;47.404;8.566;2023-03-12T08:36:00;5.95;;;4.43;;
39242;SDS011;29823;47.404;8.566;2023-03-12T08:38:29;5.20;;;4.15;;
39242;SDS011;29823;47.404;8.566;2023-03-12T08:40:57;4.60;;;3.70;;
39242;SDS011;29823;47.404;8.566;2023-03-12T08:43:26;6.05;;;4.03;;
39242;SDS011;29823;47.404;8.566;2023-03-12T08:45:54;7.70;;;4.50;;
39242;SDS011;29823;47.404;8.566;2023-03-12T08:48:25;5.85;;;4.70;;
39242;SDS011;29823;47.404;8.566;2023-03-12T08:50:53;6.25;;;4.70;;
39242;SDS011;29823;47.404;8.566;2023-03-12T08:53:22;9.27;;;5.93;;
39242;SDS011;29823;47.404;8.566;2023-03-12T08:55:50;6.88;;;4.78;;
39242;SDS011;29823;47.404;8.566;2023-03-12T08:58:19;9.85;;;4.88;;
39242;SDS011;29823;47.404;8.566;2023-03-12T09:00:47;7.35;;;5.53;;
39242;SDS011;29823;47.404;8.566;2023-03-12T09:03:15;7.95;;;5.45;;
39242;SDS011;29823;47.404;8.566;2023-03-12T09:05:46;5.80;;;4.80;;
39242;SDS011;29823;47.404;8.566;2023-03-12T09:08:15;7.38;;;5.47;;
39242;SDS011;29823;47.404;8.566;2023-03-12T09:10:46;7.57;;;5.28;;
39242;SDS011;29823;47.404;8.566;2023-03-12T09:13:15;6.97;;;5.07;;
39242;SDS011;29823;47.404;8.566;2023-03-12T09:15:43;6.68;;;4.78;;
39242;SDS011;29823;47.404;8.566;2023-03-12T09:18:12;7.03;;;4.97;;
39242;SDS011;29823;47.404;8.566;2023-03-12T09:20:40;6.68;;;4.90;;
39242;SDS011;29823;47.404;8.566;2023-03-12T09:23:10;7.20;;;5.20;;
39242;SDS011;29823;47.404;8.566;2023-03-12T09:25:39;6.78;;;5.40;;
39242;SDS011;29823;47.404;8.566;2023-03-12T09:28:07;7.32;;;5.18;;
39242;SDS011;29823;47.404;8.566;2023-03-12T09:30:40;6.53;;;5.07;;
39242;SDS011;29823;47.404;8.566;2023-03-12T09:33:09;8.10;;;5.57;;
39242;SDS011;29823;47.404;8.566;2023-03-12T09:35:39;7.75;;;5.50;;
39242;SDS011;29823;47.404;8.566;2023-03-12T09:38:12;6.15;;;4.90;;
39242;SDS011;29823;47.404;8.566;2023-03-12T09:40:42;7.70;;;5.28;;
39242;SDS011;29823;47.404;8.566;2023-03-12T09:43:16;6.65;;;4.82;;
39242;SDS011;29823;47.404;8.566;2023-03-12T09:45:47;6.95;;;5.20;;
39242;SDS011;29823;47.404;8.566;2023-03-12T09:48:17;6.70;;;4.57;;
39242;SDS011;29823;47.404;8.566;2023-03-12T09:50:52;6.63;;;4.72;;
39242;SDS011;29823;47.404;8.566;2023-03-12T09:53:24;5.82;;;4.70;;
39242;SDS011;29823;47.404;8.566;2023-03-12T09:55:58;6.85;;;5.30;;
39242;SDS011;29823;47.404;8.566;2023-03-12T09:58:34;7.65;;;4.90;;
39242;SDS011;29823;47.404;8.566;2023-03-12T10:01:06;8.60;;;5.30;;
39242;SDS011;29823;47.404;8.566;2023-03-12T10:03:51;7.95;;;4.88;;
39242;SDS011;29823;47.404;8.566;2023-03-12T10:06:28;8.45;;;5.47;;
39242;SDS011;29823;47.404;8.566;2023-03-12T10:09:09;6.43;;;4.57;;
39242;SDS011;29823;47.404;8.566;2023-03-12T10:12:23;5.72;;;3.90;;
39242;SDS011;29823;47.404;8.566;2023-03-12T10:15:02;7.65;;;3.67;;
39242;SDS011;29823;47.404;8.566;2023-03-12T10:18:33;5.50;;;3.35;;
39242;SDS011;29823;47.404;8.566;2023-03-12T10:21:18;3.65;;;2.58;;
39242;SDS011;29823;47.404;8.566;2023-03-12T10:24:02;3.78;;;2.40;;
39242;SDS011;29823;47.404;8.566;2023-03-12T10:26:56;2.65;;;1.70;;
39242;SDS011;29823;47.404;8.566;2023-03-12T10:29:27;3.83;;;2.03;;
39242;SDS011;29823;47.404;8.566;2023-03-12T10:31:58;3.70;;;2.55;;
39242;SDS011;29823;47.404;8.566;2023-03-12T10:34:29;5.53;;;3.10;;
39242;SDS011;29823;47.404;8.566;2023-03-12T10:37:04;3.72;;;2.10;;
39242;SDS011;29823;47.404;8.566;2023-03-12T10:39:41;2.08;;;1.60;;
39242;SDS011;29823;47.404;8.566;2023-03-12T10:42:14;5.05;;;1.77;;
39242;SDS011;29823;47.404;8.566;2023-03-12T10:44:45;4.82;;;1.80;;
39242;SDS011;29823;47.404;8.566;2023-03-12T10:47:18;2.20;;;1.40;;
39242;SDS011;29823;47.404;8.566;2023-03-12T10:49:54;2.58;;;1.77;;
39242;SDS011;29823;47.404;8.566;2023-03-12T10:52:38;3.22;;;1.40;;
39242;SDS011;29823;47.404;8.566;2023-03-12T10:55:11;2.67;;;1.60;;
39242;SDS011;29823;47.404;8.566;2023-03-12T10:57:46;2.83;;;1.58;;
39242;SDS011;29823;47.404;8.566;2023-03-12T11:00:18;3.72;;;1.92;;
39242;SDS011;29823;47.404;8.566;2023-03-12T11:02:55;3.78;;;1.58;;
39242;SDS011;29823;47.404;8.566;2023-03-12T11:05:26;4.55;;;2.00;;
39242;SDS011;29823;47.404;8.566;2023-03-12T11:07:56;2.97;;;1.65;;
39242;SDS011;29823;47.404;8.566;2023-03-12T11:10:38;4.43;;;1.85;;
39242;SDS011;29823;47.404;8.566;2023-03-12T11:13:20;8.85;;;2.63;;
39242;SDS011;29823;47.404;8.566;2023-03-12T11:15:55;5.28;;;2.30;;
39242;SDS011;29823;47.404;8.566;2023-03-12T11:18:28;3.75;;;2.33;;
39242;SDS011;29823;47.404;8.566;2023-03-12T11:21:14;4.28;;;2.90;;
39242;SDS011;29823;47.404;8.566;2023-03-12T11:24:19;5.82;;;3.42;;
39242;SDS011;29823;47.404;8.566;2023-03-12T11:26:50;6.82;;;3.85;;
39242;SDS011;29823;47.404;8.566;2023-03-12T11:29:36;5.78;;;2.60;;
39242;SDS011;29823;47.404;8.566;2023-03-12T11:32:10;7.15;;;2.70;;
39242;SDS011;29823;47.404;8.566;2023-03-12T11:34:43;2.53;;;1.77;;
39242;SDS011;29823;47.404;8.566;2023-03-12T11:37:13;4.50;;;2.55;;
39242;SDS011;29823;47.404;8.566;2023-03-12T11:39:51;4.18;;;1.75;;
39242;SDS011;29823;47.404;8.566;2023-03-12T11:42:37;9.18;;;2.78;;
39242;SDS011;29823;47.404;8.566;2023-03-12T11:45:17;2.15;;;1.35;;
39242;SDS011;29823;47.404;8.566;2023-03-12T11:47:57;3.67;;;1.30;;
39242;SDS011;29823;47.404;8.566;2023-03-12T11:50:38;1.63;;;1.02;;
39242;SDS011;29823;47.404;8.566;2023-03-12T11:53:19;2.47;;;1.90;;
39242;SDS011;29823;47.404;8.566;2023-03-12T11:56:05;2.78;;;1.35;;
39242;SDS011;29823;47.404;8.566;2023-03-12T11:58:47;3.17;;;1.48;;
39242;SDS011;29823;47.404;8.566;2023-03-12T12:01:25;2.40;;;1.48;;
39242;SDS011;29823;47.404;8.566;2023-03-12T12:04:12;2.33;;;1.40;;
39242;SDS011;29823;47.404;8.566;2023-03-12T12:07:06;3.88;;;1.83;;
39242;SDS011;29823;47.404;8.566;2023-03-12T12:09:43;4.93;;;1.90;;
39242;SDS011;29823;47.404;8.566;2023-03-12T12:12:20;3.25;;;1.52;;
39242;SDS011;29823;47.404;8.566;2023-03-12T12:15:05;2.85;;;1.25;;
39242;SDS011;29823;47.404;8.566;2023-03-12T12:17:44;3.50;;;1.20;;
39242;SDS011;29823;47.404;8.566;2023-03-12T12:20:25;2.53;;;1.20;;
39242;SDS011;29823;47.404;8.566;2023-03-12T12:23:06;3.22;;;1.35;;
39242;SDS011;29823;47.404;8.566;2023-03-12T12:25:47;5.63;;;1.55;;
39242;SDS011;29823;47.404;8.566;2023-03-12T12:28:30;5.63;;;1.25;;
39242;SDS011;29823;47.404;8.566;2023-03-12T12:31:19;3.70;;;1.25;;
39242;SDS011;29823;47.404;8.566;2023-03-12T12:33:59;3.10;;;1.77;;
39242;SDS011;29823;47.404;8.566;2023-03-12T12:36:35;4.72;;;1.58;;
39242;SDS011;29823;47.404;8.566;2023-03-12T12:39:07;6.57;;;1.30;;
39242;SDS011;29823;47.404;8.566;2023-03-12T12:41:40;9.27;;;3.45;;
39242;SDS011;29823;47.404;8.566;2023-03-12T12:44:14;6.65;;;2.38;;
39242;SDS011;29823;47.404;8.566;2023-03-12T12:46:47;4.18;;;1.65;;
39242;SDS011;29823;47.404;8.566;2023-03-12T12:49:19;4.50;;;1.52;;
39242;SDS011;29823;47.404;8.566;2023-03-12T12:54:21;2.88;;;1.23;;
39242;SDS011;29823;47.404;8.566;2023-03-12T12:56:59;3.33;;;1.40;;
39242;SDS011;29823;47.404;8.566;2023-03-12T12:59:35;4.13;;;1.50;;
39242;SDS011;29823;47.404;8.566;2023-03-12T13:02:14;5.93;;;1.75;;
39242;SDS011;29823;47.404;8.566;2023-03-12T13:04:44;5.25;;;1.50;;
39242;SDS011;29823;47.404;8.566;2023-03-12T13:07:29;7.78;;;3.15;;
39242;SDS011;29823;47.404;8.566;2023-03-12T13:10:04;8.25;;;2.90;;
39242;SDS011;29823;47.404;8.566;2023-03-12T13:12:35;5.25;;;1.90;;
39242;SDS011;29823;47.404;8.566;2023-03-12T13:18:16;4.80;;;1.70;;
39242;SDS011;29823;47.404;8.566;2023-03-12T13:21:05;5.55;;;1.50;;
39242;SDS011;29823;47.404;8.566;2023-03-12T13:23:42;6.30;;;1.77;;
39242;SDS011;29823;47.404;8.566;2023-03-12T13:26:25;3.67;;;1.30;;
39242;SDS011;29823;47.404;8.566;2023-03-12T13:28:58;6.43;;;1.65;;
39242;SDS011;29823;47.404;8.566;2023-03-12T13:31:40;3.88;;;1.25;;
39242;SDS011;29823;47.404;8.566;2023-03-12T13:36:59;3.90;;;1.52;;
39242;SDS011;29823;47.404;8.566;2023-03-12T13:39:29;5.85;;;1.88;;
39242;SDS011;29823;47.404;8.566;2023-03-12T13:41:59;7.70;;;1.52;;
39242;SDS011;29823;47.404;8.566;2023-03-12T13:44:29;5.28;;;1.48;;
39242;SDS011;29823;47.404;8.566;2023-03-12T13:47:03;7.25;;;2.88;;
39242;SDS011;29823;47.404;8.566;2023-03-12T13:49:45;5.78;;;1.85;;
39242;SDS011;29823;47.404;8.566;2023-03-12T13:52:21;2.72;;;1.30;;
39242;SDS011;29823;47.404;8.566;2023-03-12T13:54:56;3.40;;;1.83;;
39242;SDS011;29823;47.404;8.566;2023-03-12T13:57:32;5.22;;;1.85;;
39242;SDS011;29823;47.404;8.566;2023-03-12T14:00:06;6.35;;;1.55;;
39242;SDS011;29823;47.404;8.566;2023-03-12T14:02:43;4.32;;;1.60;;
39242;SDS011;29823;47.404;8.566;2023-03-12T14:05:16;8.57;;;1.70;;
39242;SDS011;29823;47.404;8.566;2023-03-12T14:07:49;7.40;;;2.03;;
39242;SDS011;29823;47.404;8.566;2023-03-12T14:10:35;4.43;;;1.73;;
39242;SDS011;29823;47.404;8.566;2023-03-12T14:13:20;5.53;;;1.25;;
39242;SDS011;29823;47.404;8.566;2023-03-12T14:15:58;4.05;;;1.50;;
39242;SDS011;29823;47.404;8.566;2023-03-12T14:18:37;6.35;;;1.30;;
39242;SDS011;29823;47.404;8.566;2023-03-12T14:21:12;8.02;;;1.73;;
39242;SDS011;29823;47.404;8.566;2023-03-12T14:23:43;4.07;;;1.40;;
39242;SDS011;29823;47.404;8.566;2023-03-12T14:26:16;10.88;;;1.88;;
39242;SDS011;29823;47.404;8.566;2023-03-12T14:28:48;3.03;;;1.33;;
39242;SDS011;29823;47.404;8.566;2023-03-12T14:31:21;6.35;;;1.50;;
39242;SDS011;29823;47.404;8.566;2023-03-12T14:33:53;8.88;;;1.40;;
39242;SDS011;29823;47.404;8.566;2023-03-12T14:36:26;8.40;;;1.70;;
39242;SDS011;29823;47.404;8.566;2023-03-12T14:38:59;8.48;;;1.80;;
39242;SDS011;29823;47.404;8.566;2023-03-12T14:41:40;6.68;;;1.98;;
39242;SDS011;29823;47.404;8.566;2023-03-12T14:44:17;6.45;;;1.83;;
39242;SDS011;29823;47.404;8.566;2023-03-12T14:46:54;6.88;;;1.60;;
39242;SDS011;29823;47.404;8.566;2023-03-12T14:49:22;6.70;;;1.65;;
39242;SDS011;29823;47.404;8.566;2023-03-12T14:51:51;9.13;;;1.92;;
39242;SDS011;29823;47.404;8.566;2023-03-12T14:54:21;7.00;;;1.48;;
39242;SDS011;29823;47.404;8.566;2023-03-12T14:56:51;5.82;;;1.42;;
39242;SDS011;29823;47.404;8.566;2023-03-12T14:59:20;4.80;;;1.30;;
39242;SDS011;29823;47.404;8.566;2023-03-12T15:01:50;3.50;;;1.10;;
39242;SDS011;29823;47.404;8.566;2023-03-12T15:04:25;3.20;;;1.05;;
39242;SDS011;29823;47.404;8.566;2023-03-12T15:06:56;3.28;;;0.98;;
39242;SDS011;29823;47.404;8.566;2023-03-12T15:09:30;6.43;;;1.17;;
39242;SDS011;29823;47.404;8.566;2023-03-12T15:12:02;3.42;;;1.02;;
39242;SDS011;29823;47.404;8.566;2023-03-12T15:14:32;4.05;;;1.05;;
39242;SDS011;29823;47.404;8.566;2023-03-12T15:17:04;6.45;;;1.52;;
39242;SDS011;29823;47.404;8.566;2023-03-12T15:19:34;3.70;;;1.20;;
39242;SDS011;29823;47.404;8.566;2023-03-12T15:22:07;4.38;;;1.13;;